Terminal Aerodrome Forecast
Issued by NWS

Home | Current Version | Previous Version | Text Only | Print | Product List | Glossary On
Versions: 1 2 3 4 5 6 7 8 9 10 11 12 13 14 15 16 17 18 19 20 21 22 23 24 25 26 27 28 29 30 31 32 33 34
000
FTUS46 KLOX 180200 AAA
TAFLAX
TAF AMD
KLAX 180231Z 1803/1906 35005KT P6SM SCT050 BKN090
     FM181400 VRB03KT P6SM VCSH SCT035 BKN070
     FM181600 26008KT P6SM VCSH SCT025 BKN050
     FM182200 27010KT P6SM SCT025 SCT050
     FM190400 30005KT P6SM SKC=

USA.gov is the U.S. government's official web portal to all federal, state and local government web resources and services.